createdAt,value
2023-05-12T00:01:59.177Z,3.63
2023-05-12T00:04:28.378Z,6.07
2023-05-12T00:06:56.267Z,4.87
2023-05-12T00:09:24.102Z,5.70
2023-05-12T00:11:52.066Z,4.13
2023-05-12T00:14:21.029Z,4.83
2023-05-12T00:16:51.921Z,7.50
2023-05-12T00:19:20.936Z,5.43
2023-05-12T00:21:50.121Z,5.40
2023-05-12T00:24:17.986Z,6.40
2023-05-12T00:26:45.830Z,4.13
2023-05-12T00:29:13.699Z,5.57
2023-05-12T00:31:41.555Z,4.60
2023-05-12T00:34:09.663Z,6.70
2023-05-12T00:36:37.589Z,7.60
2023-05-12T00:39:06.872Z,5.23
2023-05-12T00:41:34.771Z,5.80
2023-05-12T00:44:02.606Z,7.77
2023-05-12T00:46:30.564Z,5.60
2023-05-12T00:48:58.743Z,7.00
2023-05-12T00:51:27.157Z,3.10
2023-05-12T00:53:56.525Z,4.60
2023-05-12T00:56:26.702Z,3.93
2023-05-12T00:58:54.608Z,4.87
2023-05-12T01:01:22.673Z,5.07
2023-05-12T01:03:50.729Z,4.63
2023-05-12T01:06:23.809Z,7.10
2023-05-12T01:08:52.375Z,3.67
2023-05-12T01:11:20.263Z,4.03
2023-05-12T01:13:49.404Z,3.97
2023-05-12T01:16:19.548Z,4.73
2023-05-12T01:18:51.365Z,3.47
2023-05-12T01:21:20.416Z,3.20
2023-05-12T01:23:55.761Z,3.43
2023-05-12T01:26:25.299Z,5.27
2023-05-12T01:28:53.470Z,3.57
2023-05-12T01:31:21.547Z,4.73
2023-05-12T01:33:49.467Z,6.13
2023-05-12T01:36:17.334Z,4.90
2023-05-12T01:38:45.285Z,3.87
2023-05-12T01:41:13.085Z,9.33
2023-05-12T01:43:42.373Z,7.50
2023-05-12T01:46:11.012Z,3.93
2023-05-12T01:48:39.005Z,7.13
2023-05-12T01:51:08.939Z,2.77
2023-05-12T01:53:36.824Z,5.43
2023-05-12T01:56:04.749Z,4.53
2023-05-12T01:58:32.575Z,5.70
2023-05-12T02:01:01.756Z,4.13
2023-05-12T02:03:29.584Z,3.07
2023-05-12T02:05:57.586Z,3.33
2023-05-12T02:08:25.553Z,4.17
2023-05-12T02:11:06.049Z,3.37
2023-05-12T02:13:33.989Z,3.23
2023-05-12T02:16:03.549Z,3.80
2023-05-12T02:18:31.522Z,4.23
2023-05-12T02:20:59.456Z,4.63
2023-05-12T02:23:27.215Z,4.23
2023-05-12T02:25:55.131Z,3.10
2023-05-12T02:28:22.941Z,4.53
2023-05-12T02:30:53.117Z,4.17
2023-05-12T02:33:23.137Z,4.73
2023-05-12T02:35:51.138Z,3.57
2023-05-12T02:38:19.210Z,3.87
2023-05-12T02:40:47.796Z,3.97
2023-05-12T02:43:15.663Z,3.33
2023-05-12T02:45:43.574Z,4.03
2023-05-12T02:48:11.422Z,4.63
2023-05-12T02:50:40.550Z,4.63
2023-05-12T02:53:08.405Z,2.63
2023-05-12T02:55:36.281Z,4.33
2023-05-12T02:58:04.143Z,4.77
2023-05-12T03:00:32.005Z,4.47
2023-05-12T03:02:59.912Z,4.57
2023-05-12T03:05:27.764Z,6.23
2023-05-12T03:07:57.030Z,7.50
2023-05-12T03:10:24.836Z,3.93
2023-05-12T03:12:52.722Z,8.73
2023-05-12T03:15:20.622Z,4.13
2023-05-12T03:17:48.528Z,3.97
2023-05-12T03:20:16.714Z,5.83
2023-05-12T03:22:44.544Z,3.60
2023-05-12T03:25:13.820Z,4.60
2023-05-12T03:27:41.778Z,6.47
2023-05-12T03:30:10.775Z,3.20
2023-05-12T03:32:40.200Z,4.43
2023-05-12T03:35:08.633Z,2.57
2023-05-12T03:37:36.606Z,4.03
2023-05-12T03:40:04.974Z,2.77
2023-05-12T03:42:34.187Z,7.60
2023-05-12T03:45:02.104Z,3.30
2023-05-12T03:47:30.078Z,4.07
2023-05-12T03:49:58.765Z,4.53
2023-05-12T03:52:26.651Z,6.17
2023-05-12T03:54:54.632Z,2.70
2023-05-12T03:57:22.433Z,4.77
2023-05-12T03:59:51.569Z,5.27
2023-05-12T04:02:19.488Z,5.30
2023-05-12T04:04:47.372Z,3.90
2023-05-12T04:07:15.115Z,5.07
2023-05-12T04:09:44.011Z,2.97
2023-05-12T04:12:12.016Z,3.13
2023-05-12T04:14:43.309Z,4.00
2023-05-12T04:17:12.760Z,3.53
2023-05-12T04:19:40.594Z,6.30
2023-05-12T04:22:08.372Z,5.20
2023-05-12T04:24:38.259Z,9.57
2023-05-12T04:27:06.816Z,8.33
2023-05-12T04:29:34.560Z,8.10
2023-05-12T04:32:02.384Z,2.57
2023-05-12T04:34:31.564Z,4.60
2023-05-12T04:36:59.372Z,3.23
2023-05-12T04:39:27.193Z,4.20
2023-05-12T04:41:55.062Z,9.83
2023-05-12T04:44:23.250Z,6.37
2023-05-12T04:46:53.515Z,4.37
2023-05-12T04:49:21.402Z,5.23
2023-05-12T04:51:50.566Z,5.67
2023-05-12T04:54:18.361Z,3.07
2023-05-12T04:56:46.294Z,6.23
2023-05-12T04:59:15.497Z,4.90
2023-05-12T05:01:43.399Z,5.10
2023-05-12T05:04:11.268Z,5.13
2023-05-12T05:06:39.510Z,4.87
2023-05-12T05:09:08.980Z,3.47
2023-05-12T05:11:36.822Z,4.10
2023-05-12T05:14:04.757Z,6.35
2023-05-12T05:16:32.670Z,8.35
2023-05-12T05:19:02.059Z,5.00
2023-05-12T05:21:34.651Z,6.00
2023-05-12T05:24:02.467Z,3.08
2023-05-12T05:26:31.715Z,4.95
2023-05-12T05:28:59.753Z,3.72
2023-05-12T05:31:28.885Z,4.70
2023-05-12T05:33:57.220Z,2.72
2023-05-12T05:36:26.307Z,5.75
2023-05-12T05:38:54.161Z,3.42
2023-05-12T05:41:22.437Z,2.65
2023-05-12T05:43:51.646Z,3.92
2023-05-12T05:46:19.603Z,2.90
2023-05-12T05:48:47.532Z,4.70
2023-05-12T05:51:15.365Z,2.65
2023-05-12T05:53:43.207Z,4.38
2023-05-12T05:56:11.127Z,5.28
2023-05-12T05:58:38.971Z,5.78
2023-05-12T06:01:08.234Z,8.57
2023-05-12T06:03:36.054Z,2.65
2023-05-12T06:06:04.503Z,5.20
2023-05-12T06:08:32.365Z,5.45
2023-05-12T06:11:00.284Z,3.15
2023-05-12T06:13:28.004Z,3.38
2023-05-12T06:15:55.787Z,4.63
2023-05-12T06:18:25.052Z,2.97
2023-05-12T06:20:52.871Z,4.65
2023-05-12T06:23:20.680Z,8.85
2023-05-12T06:25:49.654Z,3.75
2023-05-12T06:28:17.490Z,3.42
2023-05-12T06:30:45.399Z,6.60
2023-05-12T06:33:13.233Z,6.25
2023-05-12T06:35:42.440Z,3.17
2023-05-12T06:38:10.236Z,4.90
2023-05-12T06:40:38.034Z,5.97
2023-05-12T06:43:05.921Z,5.20
2023-05-12T06:45:33.816Z,3.53
2023-05-12T06:48:01.748Z,4.45
2023-05-12T06:50:29.673Z,9.23
2023-05-12T06:52:58.874Z,4.70
2023-05-12T06:55:26.771Z,7.22
2023-05-12T06:57:56.118Z,5.90
2023-05-12T07:00:24.642Z,6.75
2023-05-12T07:02:54.920Z,5.00
2023-05-12T07:05:23.083Z,2.58
2023-05-12T07:07:51.120Z,5.32
2023-05-12T07:10:21.203Z,3.38
2023-05-12T07:12:48.957Z,4.10
2023-05-12T07:15:16.763Z,2.63
2023-05-12T07:17:44.650Z,2.38
2023-05-12T07:20:13.084Z,4.07
2023-05-12T07:22:40.975Z,3.28
2023-05-12T07:25:09.539Z,3.90
2023-05-12T07:27:38.829Z,3.17
2023-05-12T07:30:08.213Z,4.93
2023-05-12T07:32:36.509Z,6.53
2023-05-12T07:35:04.746Z,6.53
2023-05-12T07:37:32.921Z,4.32
2023-05-12T07:40:00.798Z,1.77
2023-05-12T07:42:28.717Z,2.00
2023-05-12T07:44:57.958Z,3.42
2023-05-12T07:47:25.788Z,9.18
2023-05-12T07:49:53.624Z,3.45
2023-05-12T07:52:21.475Z,3.65
2023-05-12T07:54:49.412Z,2.75
2023-05-12T07:57:17.794Z,7.03
2023-05-12T07:59:45.610Z,1.85
2023-05-12T08:02:14.817Z,3.80
2023-05-12T08:04:44.443Z,4.22
2023-05-12T08:07:12.377Z,2.58
2023-05-12T08:09:40.161Z,1.98
2023-05-12T08:12:08.024Z,4.53
2023-05-12T08:14:35.772Z,3.90
2023-05-12T08:17:05.113Z,3.95
2023-05-12T08:19:34.326Z,2.92
2023-05-12T08:22:02.871Z,5.97
2023-05-12T08:24:30.735Z,4.13
2023-05-12T08:26:59.681Z,6.22
2023-05-12T08:29:27.561Z,2.70
2023-05-12T08:31:55.545Z,2.63
2023-05-12T08:34:23.862Z,3.25
2023-05-12T08:36:53.572Z,2.97
2023-05-12T08:39:21.938Z,2.30
2023-05-12T08:41:54.287Z,3.13
2023-05-12T08:44:22.308Z,3.38
2023-05-12T08:46:52.498Z,5.22
2023-05-12T08:49:23.836Z,4.07
2023-05-12T08:51:58.333Z,3.15
2023-05-12T08:54:28.889Z,10.07
2023-05-12T08:59:28.430Z,4.20
2023-05-12T09:01:57.451Z,3.97
2023-05-12T09:04:25.333Z,2.75
2023-05-12T09:06:55.879Z,2.83
2023-05-12T09:09:28.300Z,3.90
2023-05-12T09:11:58.211Z,4.18
2023-05-12T09:14:27.182Z,3.80
2023-05-12T09:17:00.374Z,2.00
2023-05-12T09:19:28.313Z,7.05
2023-05-12T09:21:56.870Z,2.13
2023-05-12T09:24:36.772Z,2.55
2023-05-12T09:27:05.561Z,5.07
2023-05-12T09:29:35.876Z,4.35
2023-05-12T09:32:07.890Z,2.28
2023-05-12T09:34:38.683Z,4.15
2023-05-12T09:37:07.970Z,2.00
2023-05-12T09:39:37.409Z,3.17
2023-05-12T09:42:11.635Z,5.68
2023-05-12T09:44:40.658Z,2.75
2023-05-12T09:47:10.557Z,2.60
2023-05-12T09:49:38.567Z,4.38
2023-05-12T09:52:06.934Z,5.28
2023-05-12T09:54:34.804Z,2.95
2023-05-12T09:57:05.713Z,4.55
2023-05-12T09:59:35.129Z,6.88
2023-05-12T10:02:06.189Z,6.05
2023-05-12T10:04:41.786Z,6.65
2023-05-12T10:07:12.584Z,2.80
2023-05-12T10:09:43.210Z,1.73
2023-05-12T10:12:12.751Z,4.88
2023-05-12T10:14:42.099Z,4.50
2023-05-12T10:17:11.003Z,3.63
2023-05-12T10:19:41.149Z,6.18
2023-05-12T10:22:11.781Z,4.10
2023-05-12T10:24:41.978Z,2.80
2023-05-12T10:27:09.809Z,4.07
2023-05-12T10:29:40.543Z,3.40
2023-05-12T10:32:08.419Z,4.82
2023-05-12T10:34:38.603Z,2.72
2023-05-12T10:37:08.440Z,3.60
2023-05-12T10:39:37.145Z,1.60
2023-05-12T10:42:08.488Z,3.67
2023-05-12T10:44:36.961Z,5.20
2023-05-12T10:47:14.686Z,1.73
2023-05-12T10:49:43.530Z,3.42
2023-05-12T10:52:12.852Z,5.50
2023-05-12T10:54:44.390Z,4.70
2023-05-12T10:57:18.353Z,2.97
2023-05-12T10:59:51.568Z,6.20
2023-05-12T11:02:27.435Z,3.67
2023-05-12T11:04:59.202Z,4.38
2023-05-12T11:07:30.312Z,6.15
2023-05-12T11:10:01.438Z,2.28
2023-05-12T11:12:33.381Z,3.50
2023-05-12T11:15:02.670Z,2.70
2023-05-12T11:17:32.560Z,4.65
2023-05-12T11:20:01.407Z,4.63
2023-05-12T11:22:29.745Z,3.63
2023-05-12T11:24:57.622Z,3.22
2023-05-12T11:27:25.983Z,3.55
2023-05-12T11:29:58.069Z,3.53
2023-05-12T11:32:26.244Z,4.13
2023-05-12T11:34:55.766Z,2.85
2023-05-12T11:37:24.099Z,2.40
2023-05-12T11:39:53.160Z,2.00
2023-05-12T11:42:23.468Z,4.30
2023-05-12T11:44:52.194Z,3.65
2023-05-12T11:47:21.462Z,2.33
2023-05-12T11:49:50.499Z,10.38
2023-05-12T11:52:20.724Z,1.92
2023-05-12T11:54:52.225Z,5.00
2023-05-12T11:57:27.980Z,3.13
2023-05-12T12:00:00.509Z,3.85
2023-05-12T12:02:29.227Z,3.67
2023-05-12T12:04:57.723Z,3.22
2023-05-12T12:07:34.163Z,5.38
2023-05-12T12:10:13.078Z,5.47
2023-05-12T12:12:41.125Z,3.42
2023-05-12T12:15:10.727Z,5.88
2023-05-12T12:17:40.081Z,2.70
2023-05-12T12:20:09.964Z,4.25
2023-05-12T12:22:39.132Z,2.45
2023-05-12T12:25:08.280Z,4.47
2023-05-12T12:27:36.280Z,4.15
2023-05-12T12:30:04.329Z,5.78
2023-05-12T12:32:32.184Z,3.47
2023-05-12T12:35:06.415Z,6.32
2023-05-12T12:37:34.317Z,2.10
2023-05-12T12:40:08.249Z,7.80
2023-05-12T12:42:37.101Z,5.30
2023-05-12T12:45:06.364Z,3.08
2023-05-12T12:47:34.216Z,5.97
2023-05-12T12:50:02.121Z,4.63
2023-05-12T12:52:29.929Z,2.85
2023-05-12T12:54:58.078Z,4.22
2023-05-12T12:57:27.406Z,5.72
2023-05-12T12:59:55.620Z,3.45
2023-05-12T13:02:23.681Z,4.32
2023-05-12T13:04:52.103Z,2.72
2023-05-12T13:07:19.931Z,1.85
2023-05-12T13:09:47.774Z,4.53
2023-05-12T13:12:15.867Z,2.95
2023-05-12T13:14:45.573Z,2.10
2023-05-12T13:17:13.452Z,1.63
2023-05-12T13:19:42.030Z,5.70
2023-05-12T13:22:09.918Z,14.15
2023-05-12T13:24:37.755Z,7.82
2023-05-12T13:27:08.474Z,1.90
2023-05-12T13:29:36.431Z,2.58
2023-05-12T13:32:05.948Z,2.35
2023-05-12T13:34:33.743Z,3.65
2023-05-12T13:37:01.881Z,1.65
2023-05-12T13:39:29.792Z,6.45
2023-05-12T13:41:57.584Z,3.97
2023-05-12T13:44:25.796Z,2.67
2023-05-12T13:46:53.622Z,3.55
2023-05-12T13:49:22.872Z,4.35
2023-05-12T13:51:50.796Z,2.45
2023-05-12T13:54:18.715Z,2.05
2023-05-12T13:56:47.255Z,3.45
2023-05-12T13:59:15.125Z,2.53
2023-05-12T14:01:44.194Z,3.72
2023-05-12T14:04:12.190Z,4.25
2023-05-12T14:06:41.578Z,3.17
2023-05-12T14:09:10.163Z,4.50
2023-05-12T14:11:38.031Z,3.33
2023-05-12T14:14:06.435Z,4.40
2023-05-12T14:16:34.848Z,2.45
2023-05-12T14:19:02.918Z,2.85
2023-05-12T14:21:31.126Z,1.90
2023-05-12T14:24:00.386Z,2.88
2023-05-12T14:26:28.578Z,1.92
2023-05-12T14:28:56.995Z,2.78
2023-05-12T14:31:24.994Z,4.60
2023-05-12T14:33:53.372Z,4.40
2023-05-12T14:36:21.311Z,3.30
2023-05-12T14:38:49.966Z,2.70
2023-05-12T14:41:26.915Z,6.15
2023-05-12T14:43:54.947Z,3.38
2023-05-12T14:46:25.044Z,1.95
2023-05-12T14:48:53.335Z,4.32
2023-05-12T14:51:21.244Z,2.90
2023-05-12T14:53:54.605Z,3.55
2023-05-12T14:56:46.848Z,4.03
2023-05-12T14:59:14.961Z,2.38
2023-05-12T15:01:45.420Z,1.70
2023-05-12T15:04:13.461Z,2.25
2023-05-12T15:06:43.979Z,3.25
2023-05-12T15:09:12.137Z,3.10
2023-05-12T15:11:44.545Z,2.40
2023-05-12T15:14:12.819Z,4.82
2023-05-12T15:16:40.667Z,2.80
2023-05-12T15:19:08.833Z,3.00
2023-05-12T15:21:36.973Z,2.88
2023-05-12T15:24:06.409Z,5.82
2023-05-12T15:26:35.265Z,1.95
2023-05-12T15:29:05.996Z,2.40
2023-05-12T15:31:34.446Z,2.00
2023-05-12T15:34:02.354Z,2.58
2023-05-12T15:36:31.005Z,2.78
2023-05-12T15:38:58.937Z,5.10
2023-05-12T15:41:26.839Z,3.70
2023-05-12T15:43:54.655Z,2.65
2023-05-12T15:46:24.340Z,2.80
2023-05-12T15:48:52.395Z,4.15
2023-05-12T15:51:20.202Z,1.75
2023-05-12T15:53:48.053Z,3.30
2023-05-12T15:56:15.873Z,1.70
2023-05-12T15:58:43.733Z,1.90
2023-05-12T16:01:11.572Z,2.08
2023-05-12T16:03:42.259Z,2.17
2023-05-12T16:06:10.252Z,1.98
2023-05-12T16:08:38.765Z,2.15
2023-05-12T16:11:13.912Z,4.78
2023-05-12T16:13:42.442Z,1.40
2023-05-12T16:16:10.484Z,2.55
2023-05-12T16:18:39.313Z,2.75
2023-05-12T16:21:11.045Z,2.40
2023-05-12T16:23:38.905Z,1.88
2023-05-12T16:26:07.021Z,3.60
2023-05-12T16:28:35.700Z,2.10
2023-05-12T16:31:04.841Z,4.72
2023-05-12T16:33:32.827Z,2.75
2023-05-12T16:36:01.371Z,2.78
2023-05-12T16:38:32.422Z,3.65
2023-05-12T16:41:01.608Z,2.35
2023-05-12T16:43:29.391Z,2.95
2023-05-12T16:46:01.333Z,4.25
2023-05-12T16:48:34.450Z,2.85
2023-05-12T16:51:03.471Z,4.63
2023-05-12T16:53:32.860Z,3.55
2023-05-12T16:56:01.028Z,1.77
2023-05-12T16:58:31.424Z,3.08
2023-05-12T17:00:59.749Z,2.30
2023-05-12T17:03:27.751Z,3.10
2023-05-12T17:05:55.663Z,2.20
2023-05-12T17:08:24.625Z,3.85
2023-05-12T17:10:54.305Z,2.67
2023-05-12T17:13:22.471Z,3.50
2023-05-12T17:15:50.499Z,4.50
2023-05-12T17:18:18.410Z,5.25
2023-05-12T17:20:46.263Z,2.78
2023-05-12T17:23:14.152Z,2.38
2023-05-12T17:25:41.917Z,3.63
2023-05-12T17:28:11.472Z,3.08
2023-05-12T17:30:39.282Z,2.22
2023-05-12T17:33:07.668Z,3.08
2023-05-12T17:35:37.809Z,2.67
2023-05-12T17:38:06.317Z,6.30
2023-05-12T17:40:34.348Z,4.75
2023-05-12T17:43:02.520Z,2.20
2023-05-12T17:45:31.830Z,4.22
2023-05-12T17:47:59.865Z,7.13
2023-05-12T17:50:27.700Z,4.30
2023-05-12T17:52:56.150Z,2.70
2023-05-12T17:55:24.437Z,2.85
2023-05-12T17:57:52.826Z,2.70
2023-05-12T18:00:21.321Z,2.28
2023-05-12T18:02:50.894Z,5.50
2023-05-12T18:05:19.255Z,6.20
2023-05-12T18:07:47.463Z,3.53
2023-05-12T18:10:15.499Z,2.30
2023-05-12T18:12:43.280Z,2.65
2023-05-12T18:15:11.974Z,2.92
2023-05-12T18:17:40.013Z,2.45
2023-05-12T18:20:10.358Z,3.22
2023-05-12T18:22:38.274Z,2.58
2023-05-12T18:25:06.904Z,4.55
2023-05-12T18:27:34.706Z,3.30
2023-05-12T18:30:02.727Z,3.17
2023-05-12T18:32:31.188Z,2.53
2023-05-12T18:34:59.582Z,4.32
2023-05-12T18:37:28.817Z,4.65
2023-05-12T18:39:58.433Z,5.25
2023-05-12T18:42:26.647Z,5.18
2023-05-12T18:44:54.524Z,3.30
2023-05-12T18:47:22.344Z,3.38
2023-05-12T18:49:50.137Z,3.33
2023-05-12T18:52:19.937Z,4.60
2023-05-12T18:54:49.902Z,3.30
2023-05-12T18:57:18.447Z,4.45
2023-05-12T18:59:46.339Z,6.10
2023-05-12T19:02:14.253Z,5.68
2023-05-12T19:04:42.191Z,3.25
2023-05-12T19:07:10.410Z,5.35
2023-05-12T19:09:38.547Z,3.38
2023-05-12T19:12:11.233Z,2.47
2023-05-12T19:14:39.488Z,8.70
2023-05-12T19:17:07.989Z,4.43
2023-05-12T19:19:36.485Z,4.63
2023-05-12T19:22:04.513Z,2.97
2023-05-12T19:24:32.589Z,3.53
2023-05-12T19:27:00.491Z,3.92
2023-05-12T19:29:29.690Z,5.40
2023-05-12T19:31:57.628Z,11.10
2023-05-12T19:34:25.520Z,6.60
2023-05-12T19:36:53.717Z,5.18
2023-05-12T19:39:21.535Z,5.95
2023-05-12T19:41:49.350Z,5.95
2023-05-12T19:44:17.839Z,8.52
2023-05-12T19:46:47.921Z,6.38
2023-05-12T19:49:15.878Z,4.97
2023-05-12T19:51:43.686Z,4.55
2023-05-12T19:54:11.633Z,5.13
2023-05-12T19:56:39.426Z,10.35
2023-05-12T19:59:07.254Z,6.55
2023-05-12T20:01:35.221Z,7.85
2023-05-12T20:04:04.540Z,5.65
2023-05-12T20:06:32.423Z,8.13
2023-05-12T20:09:00.391Z,7.18
2023-05-12T20:11:28.261Z,4.40
2023-05-12T20:13:56.027Z,9.88
2023-05-12T20:16:23.854Z,9.18
2023-05-12T20:18:51.859Z,9.75
2023-05-12T20:21:21.092Z,12.52
2023-05-12T20:23:48.989Z,7.63
2023-05-12T20:26:16.822Z,6.88
2023-05-12T20:28:44.652Z,7.05
2023-05-12T20:31:12.553Z,5.57
2023-05-12T20:33:40.439Z,8.73
2023-05-12T20:36:08.810Z,8.18
2023-05-12T20:38:37.996Z,8.32
2023-05-12T20:41:06.346Z,9.00
2023-05-12T20:43:34.391Z,9.55
2023-05-12T20:46:04.597Z,9.95
2023-05-12T20:48:33.006Z,8.95
2023-05-12T20:51:00.971Z,8.43
2023-05-12T20:53:29.030Z,8.52
2023-05-12T20:55:58.580Z,7.78
2023-05-12T20:58:26.547Z,10.60
2023-05-12T21:00:54.592Z,9.13
2023-05-12T21:03:23.967Z,8.63
2023-05-12T21:05:51.894Z,6.88
2023-05-12T21:08:19.673Z,6.75
2023-05-12T21:10:48.419Z,8.55
2023-05-12T21:13:17.887Z,7.30
2023-05-12T21:15:46.028Z,9.18
2023-05-12T21:18:14.169Z,8.27
2023-05-12T21:20:42.015Z,10.85
2023-05-12T21:23:11.676Z,9.02
2023-05-12T21:25:40.004Z,9.90
2023-05-12T21:28:08.085Z,8.18
2023-05-12T21:30:37.677Z,10.75
2023-05-12T21:33:06.709Z,8.60
2023-05-12T21:35:34.580Z,8.70
2023-05-12T21:38:02.474Z,9.63
2023-05-12T21:40:30.706Z,8.95
2023-05-12T21:42:58.598Z,7.93
2023-05-12T21:45:26.502Z,8.30
2023-05-12T21:47:55.795Z,6.85
2023-05-12T21:50:23.823Z,9.68
2023-05-12T21:52:51.647Z,9.85
2023-05-12T21:55:19.441Z,10.98
2023-05-12T21:57:47.246Z,6.30
2023-05-12T22:00:17.955Z,11.88
2023-05-12T22:02:45.866Z,6.75
2023-05-12T22:05:15.390Z,6.15
2023-05-12T22:07:43.281Z,7.43
2023-05-12T22:10:11.368Z,11.48
2023-05-12T22:12:39.167Z,7.57
2023-05-12T22:15:22.698Z,7.15
2023-05-12T22:17:50.562Z,10.95
2023-05-12T22:20:20.208Z,9.45
2023-05-12T22:22:48.467Z,6.57
2023-05-12T22:25:16.405Z,9.10
2023-05-12T22:27:44.278Z,8.70
2023-05-12T22:30:13.052Z,10.40
2023-05-12T22:32:40.923Z,7.22
2023-05-12T22:35:09.874Z,9.85
2023-05-12T22:37:39.163Z,11.50
2023-05-12T22:40:08.508Z,13.48
2023-05-12T22:42:36.773Z,9.02
2023-05-12T22:45:05.675Z,11.20
2023-05-12T22:47:33.746Z,11.03
2023-05-12T22:50:01.909Z,10.02
2023-05-12T22:52:29.907Z,11.03
2023-05-12T22:54:59.102Z,11.90
2023-05-12T22:57:26.836Z,11.53
2023-05-12T22:59:54.706Z,13.20
2023-05-12T23:02:22.571Z,13.07
2023-05-12T23:04:50.508Z,14.68
2023-05-12T23:07:18.336Z,11.35
2023-05-12T23:09:46.216Z,10.43
2023-05-12T23:12:15.464Z,10.67
2023-05-12T23:14:43.278Z,13.77
2023-05-12T23:17:11.550Z,11.07
2023-05-12T23:19:40.181Z,10.30
2023-05-12T23:22:08.010Z,10.20
2023-05-12T23:24:36.538Z,11.45
2023-05-12T23:27:04.457Z,10.82
2023-05-12T23:29:34.514Z,13.65
2023-05-12T23:32:02.541Z,13.53
2023-05-12T23:34:30.330Z,10.43
2023-05-12T23:36:58.250Z,13.83
2023-05-12T23:39:26.075Z,14.77
2023-05-12T23:41:53.893Z,13.53
2023-05-12T23:44:21.996Z,11.13
2023-05-12T23:46:51.285Z,14.50
2023-05-12T23:49:19.292Z,10.70
2023-05-12T23:51:47.163Z,12.43
2023-05-12T23:54:15.014Z,13.30
2023-05-12T23:56:42.821Z,10.33
2023-05-12T23:59:10.700Z,14.80
